Time;durP1;ratioP1;P1;durP2;ratioP2;P2;SDS_P1;SDS_P2;PMS_P1;PMS_P2;Temp;Humidity;BMP_temperature;BMP_pressure;BME280_temperature;BME280_humidity;BME280_pressure;Samples;Min_cycle;Max_cycle;Signal;HPM_P1;HPM_P2
2022/11/27 00:03:02;;;;;;;63.93;29.90;;;5.90;99.90;;;;;;10407073;28;20251;-87
2022/11/27 00:08:04;;;;;;;67.73;32.00;;;6.10;99.90;;;;;;10414830;28;20240;-88
2022/11/27 00:13:07;;;;;;;118.93;55.83;;;6.10;99.90;;;;;;10391250;28;20260;-87
2022/11/27 00:18:10;;;;;;;116.00;51.03;;;6.20;99.90;;;;;;10390017;28;20239;-87
2022/11/27 00:23:12;;;;;;;85.80;41.13;;;6.40;99.90;;;;;;10374091;28;20651;-88
2022/11/27 00:28:14;;;;;;;109.63;49.27;;;6.20;99.90;;;;;;10374734;28;20239;-87
2022/11/27 00:33:17;;;;;;;97.57;46.17;;;6.20;99.90;;;;;;10408245;28;20788;-88
2022/11/27 00:38:19;;;;;;;106.77;48.97;;;6.40;99.90;;;;;;10414511;28;20231;-87
2022/11/27 00:43:22;;;;;;;96.43;44.47;;;6.20;99.90;;;;;;10397203;28;20231;-88
2022/11/27 00:48:24;;;;;;;107.50;49.03;;;6.30;99.90;;;;;;10413021;28;20618;-87
2022/11/27 00:53:27;;;;;;;106.57;48.90;;;6.40;99.90;;;;;;10413535;28;20749;-87
2022/11/27 00:58:29;;;;;;;114.57;52.30;;;6.30;99.90;;;;;;10413861;28;20293;-87
2022/11/27 01:03:34;;;;;;;112.37;47.63;;;6.20;99.90;;;;;;10412946;28;20235;-87
2022/11/27 01:08:36;;;;;;;102.50;47.20;;;6.30;99.90;;;;;;10412666;28;20273;-87
2022/11/27 01:13:39;;;;;;;110.13;48.30;;;6.20;99.90;;;;;;10412211;28;20304;-87
2022/11/27 01:18:43;;;;;;;88.73;42.13;;;6.20;99.90;;;;;;10396038;28;20233;-87
2022/11/27 01:23:47;;;;;;;50.07;25.03;;;6.00;99.90;;;;;;10411937;28;20673;-87
2022/11/27 01:28:54;;;;;;;52.37;25.23;;;7.00;99.90;;;;;;10395507;28;20357;-86
2022/11/27 01:34:01;;;;;;;72.20;33.77;;;7.60;99.90;;;;;;10412756;28;20251;-87
2022/11/27 01:39:04;;;;;;;49.00;23.63;;;7.70;99.90;;;;;;10394679;28;20315;-86
2022/11/27 01:44:24;;;;;;;63.17;30.17;;;7.80;99.90;;;;;;10412469;28;20239;-88
2022/11/27 01:49:52;;;;;;;68.73;34.33;;;8.10;99.90;;;;;;10377489;28;20239;-87
2022/11/27 01:54:59;;;;;;;75.57;32.73;;;8.00;99.90;;;;;;10410199;28;20999;-88
2022/11/27 02:00:07;;;;;;;65.10;30.30;;;7.00;99.90;;;;;;10411549;28;20276;-87
2022/11/27 02:05:17;;;;;;;66.50;32.47;;;6.60;99.90;;;;;;10423011;28;20301;-87
2022/11/27 02:10:21;;;;;;;67.63;32.40;;;6.40;99.90;;;;;;10411755;28;20312;-86
2022/11/27 02:15:32;;;;;;;70.27;31.03;;;6.30;99.90;;;;;;10396207;28;20723;-88
2022/11/27 02:21:11;;;;;;;64.47;28.43;;;6.30;99.90;;;;;;10352332;28;20204;-87
2022/11/27 02:26:42;;;;;;;63.10;28.53;;;6.40;99.90;;;;;;10391449;28;20693;-87
2022/11/27 02:32:14;;;;;;;49.60;23.10;;;6.70;99.90;;;;;;10392137;28;20760;-87
2022/11/27 02:37:47;;;;;;;53.03;26.20;;;7.40;99.90;;;;;;10409917;28;20319;-87
2022/11/27 02:42:58;;;;;;;42.53;20.23;;;7.50;99.90;;;;;;10403194;28;20203;-87
2022/11/27 02:48:02;;;;;;;46.20;25.80;;;7.90;99.90;;;;;;10410143;28;20278;-88
2022/11/27 02:53:11;;;;;;;55.60;27.83;;;7.90;99.90;;;;;;10407638;28;20313;-87
2022/11/27 02:58:19;;;;;;;50.10;26.53;;;7.40;99.90;;;;;;10390479;28;20203;-86
2022/11/27 03:03:28;;;;;;;60.47;28.13;;;7.00;99.90;;;;;;10396501;28;20645;-87
2022/11/27 03:09:09;;;;;;;66.03;28.67;;;6.60;99.90;;;;;;10407996;28;20308;-88
2022/11/27 03:14:13;;;;;;;55.53;27.53;;;6.70;99.90;;;;;;10357397;28;20268;-87
2022/11/27 03:19:44;;;;;;;72.27;30.63;;;6.60;99.90;;;;;;10367960;28;20254;-87
2022/11/27 03:24:48;;;;;;;65.23;30.33;;;6.50;99.90;;;;;;10408362;28;20211;-87
2022/11/27 03:29:55;;;;;;;75.30;29.83;;;6.30;99.90;;;;;;10387884;28;20692;-87
2022/11/27 03:34:58;;;;;;;72.23;30.97;;;6.40;99.90;;;;;;10407546;28;20411;-87
2022/11/27 03:40:02;;;;;;;75.70;30.70;;;6.50;99.90;;;;;;10406878;28;20686;-86
2022/11/27 03:45:33;;;;;;;73.27;29.67;;;6.80;99.90;;;;;;10391165;28;20266;-86
2022/11/27 03:51:10;;;;;;;82.30;32.43;;;6.60;99.90;;;;;;10397784;28;20203;-87
2022/11/27 03:56:16;;;;;;;63.70;28.77;;;6.40;99.90;;;;;;10407281;28;20720;-86
2022/11/27 04:01:21;;;;;;;66.27;30.50;;;6.40;99.90;;;;;;10407134;28;20261;-87
2022/11/27 04:06:24;;;;;;;61.67;28.20;;;6.70;99.90;;;;;;10406740;28;20288;-87
2022/11/27 04:11:26;;;;;;;66.47;27.83;;;6.90;99.90;;;;;;10351529;28;20703;-87
2022/11/27 04:16:29;;;;;;;58.53;26.10;;;6.60;99.90;;;;;;10405039;28;20707;-86
2022/11/27 04:21:31;;;;;;;62.97;26.97;;;6.70;99.90;;;;;;10348749;28;20231;-87
2022/11/27 04:26:34;;;;;;;52.07;26.00;;;6.50;99.90;;;;;;10391948;28;20227;-87
2022/11/27 04:31:36;;;;;;;55.27;25.90;;;6.40;99.90;;;;;;10407017;28;20227;-87
2022/11/27 04:36:39;;;;;;;57.63;26.37;;;6.50;99.90;;;;;;10387251;28;20270;-87
2022/11/27 04:41:41;;;;;;;49.50;25.43;;;6.50;99.90;;;;;;10406510;28;20277;-87
2022/11/27 04:46:44;;;;;;;57.87;26.73;;;6.50;99.90;;;;;;10411150;28;20232;-87
2022/11/27 04:51:46;;;;;;;53.97;26.37;;;6.50;99.90;;;;;;10414316;28;20226;-86
2022/11/27 04:56:49;;;;;;;39.77;21.83;;;6.70;99.90;;;;;;10412857;28;20267;-87
2022/11/27 05:01:51;;;;;;;55.90;26.47;;;6.60;99.90;;;;;;10414067;28;20230;-87
2022/11/27 05:06:54;;;;;;;56.10;27.37;;;6.70;99.90;;;;;;10412733;28;20208;-87
2022/11/27 05:11:56;;;;;;;31.60;17.40;;;6.70;99.90;;;;;;10396210;28;20286;-87
2022/11/27 05:16:59;;;;;;;49.43;25.43;;;7.30;99.90;;;;;;10412458;28;20247;-87
2022/11/27 05:22:01;;;;;;;50.97;25.13;;;7.40;99.90;;;;;;10412646;28;20223;-87
2022/11/27 05:27:03;;;;;;;54.60;25.53;;;7.30;99.90;;;;;;10394478;28;20243;-87
2022/11/27 05:32:06;;;;;;;46.83;24.70;;;6.70;99.90;;;;;;10412484;28;20696;-87
2022/11/27 05:37:08;;;;;;;53.63;24.50;;;6.50;99.90;;;;;;10386436;28;20250;-87
2022/11/27 05:42:14;;;;;;;54.33;23.93;;;6.60;99.90;;;;;;10383624;28;20230;-87
2022/11/27 05:47:16;;;;;;;49.37;24.33;;;6.30;99.90;;;;;;10410908;28;20258;-86
2022/11/27 05:52:18;;;;;;;45.90;23.07;;;6.50;99.90;;;;;;10411369;28;20227;-86
2022/11/27 05:57:21;;;;;;;51.83;25.50;;;6.50;99.90;;;;;;10410065;28;20246;-87
2022/11/27 06:02:25;;;;;;;50.30;26.50;;;6.50;99.90;;;;;;10411734;28;20266;-88
2022/11/27 06:07:31;;;;;;;60.57;31.13;;;6.50;99.90;;;;;;10379972;28;20235;-87
2022/11/27 06:12:34;;;;;;;64.20;33.03;;;6.50;99.90;;;;;;10383292;28;20256;-88
2022/11/27 06:17:36;;;;;;;50.03;25.80;;;6.40;99.90;;;;;;10372195;28;20762;-86
2022/11/27 06:22:39;;;;;;;54.00;27.63;;;6.50;99.90;;;;;;10379872;28;20227;-87
2022/11/27 06:27:41;;;;;;;53.10;24.70;;;6.40;99.90;;;;;;10393575;28;20264;-87
2022/11/27 06:32:44;;;;;;;58.03;28.13;;;6.60;99.90;;;;;;10392658;28;20758;-87
2022/11/27 06:37:46;;;;;;;55.00;26.10;;;6.60;99.90;;;;;;10375715;28;20251;-87
2022/11/27 06:42:49;;;;;;;54.80;27.63;;;6.60;99.90;;;;;;10409349;28;20301;-86
2022/11/27 06:47:51;;;;;;;55.43;26.27;;;6.50;99.90;;;;;;10391368;28;20227;-86
2022/11/27 06:52:54;;;;;;;50.40;27.73;;;6.40;99.90;;;;;;10389593;28;20810;-87
2022/11/27 06:57:57;;;;;;;48.53;25.33;;;6.50;99.90;;;;;;10409818;28;20305;-87
2022/11/27 07:02:59;;;;;;;49.57;26.90;;;6.60;99.90;;;;;;10408624;28;20680;-86
2022/11/27 07:08:02;;;;;;;60.27;28.07;;;6.60;99.90;;;;;;10408337;28;20235;-87
2022/11/27 07:13:04;;;;;;;55.47;28.20;;;6.60;99.90;;;;;;10409072;28;20309;-88
2022/11/27 07:18:07;;;;;;;60.30;28.57;;;6.60;99.90;;;;;;10383728;28;20259;-86
2022/11/27 07:23:09;;;;;;;57.00;28.40;;;6.70;99.90;;;;;;10402906;28;20990;-87
2022/11/27 07:28:12;;;;;;;56.40;29.13;;;6.90;99.90;;;;;;10399872;28;20571;-87
2022/11/27 07:33:20;;;;;;;46.53;25.43;;;7.00;99.90;;;;;;10408804;28;20334;-87
2022/11/27 07:38:22;;;;;;;50.30;26.87;;;7.20;99.90;;;;;;10390657;28;20320;-87
2022/11/27 07:43:25;;;;;;;50.23;25.43;;;6.90;99.90;;;;;;10369253;28;20335;-87
2022/11/27 07:48:28;;;;;;;52.00;26.00;;;7.00;99.90;;;;;;10397308;28;20262;-87
2022/11/27 07:53:30;;;;;;;46.33;24.67;;;7.30;99.90;;;;;;10408991;28;20255;-87
2022/11/27 07:58:33;;;;;;;39.67;22.07;;;7.50;99.90;;;;;;10408734;28;20300;-87
2022/11/27 08:03:36;;;;;;;52.77;27.13;;;7.50;99.90;;;;;;10391474;28;20223;-87
2022/11/27 08:08:38;;;;;;;50.87;26.47;;;7.30;99.90;;;;;;10408291;28;20207;-87
2022/11/27 08:13:40;;;;;;;51.50;27.13;;;7.30;99.90;;;;;;10390530;28;20273;-87
2022/11/27 08:18:43;;;;;;;41.70;23.27;;;7.50;99.90;;;;;;10410994;28;20714;-87
2022/11/27 08:23:45;;;;;;;67.87;41.27;;;7.60;99.90;;;;;;10396320;28;20230;-87
2022/11/27 08:28:51;;;;;;;53.97;25.30;;;7.50;99.90;;;;;;10397764;28;20749;-87
2022/11/27 08:33:54;;;;;;;86.97;48.80;;;7.60;99.90;;;;;;10398322;28;20197;-87
2022/11/27 08:38:56;;;;;;;58.40;30.83;;;7.40;99.90;;;;;;10397372;28;20235;-87
2022/11/27 08:43:59;;;;;;;69.07;36.93;;;7.40;99.90;;;;;;10413896;28;20223;-87
2022/11/27 08:49:01;;;;;;;56.83;27.47;;;7.50;99.90;;;;;;10395984;28;20737;-87
2022/11/27 08:54:04;;;;;;;65.80;31.97;;;7.50;99.90;;;;;;10397217;28;20255;-87
2022/11/27 08:59:06;;;;;;;71.00;36.70;;;7.60;99.90;;;;;;10408379;28;20203;-87
2022/11/27 09:04:08;;;;;;;63.30;32.77;;;7.80;99.90;;;;;;10408817;28;20296;-87
2022/11/27 09:09:11;;;;;;;67.47;36.93;;;7.60;99.90;;;;;;10413815;28;20686;-87
2022/11/27 09:14:14;;;;;;;59.57;32.23;;;7.80;99.90;;;;;;10414170;28;20202;-87
2022/11/27 09:19:17;;;;;;;62.67;33.13;;;7.80;99.90;;;;;;10395231;28;20231;-87
2022/11/27 09:24:19;;;;;;;60.00;32.77;;;7.90;99.90;;;;;;10413492;28;20237;-87
2022/11/27 09:29:21;;;;;;;73.97;35.57;;;8.20;99.90;;;;;;10412123;28;20223;-87
2022/11/27 09:34:24;;;;;;;39.73;21.33;;;8.50;99.90;;;;;;10413248;28;20666;-87
2022/11/27 09:39:32;;;;;;;52.20;25.93;;;8.40;99.90;;;;;;10412225;28;20304;-87
2022/11/27 09:44:48;;;;;;;35.40;19.23;;;8.70;99.90;;;;;;10410299;28;20224;-88
2022/11/27 09:49:56;;;;;;;50.10;24.63;;;8.60;99.90;;;;;;10411457;28;20231;-87
2022/11/27 09:55:12;;;;;;;35.50;19.03;;;8.70;99.90;;;;;;10395064;28;20655;-87
2022/11/27 10:00:17;;;;;;;30.17;15.73;;;9.10;99.90;;;;;;10409593;28;20294;-86
2022/11/27 10:05:30;;;;;;;44.97;22.77;;;9.60;99.90;;;;;;10412312;28;20206;-87
2022/11/27 10:10:32;;;;;;;31.37;15.90;;;9.70;99.90;;;;;;10410999;28;20247;-86
2022/11/27 10:16:00;;;;;;;75.40;36.57;;;9.90;99.90;;;;;;10394263;28;20251;-87
2022/11/27 10:21:26;;;;;;;44.80;23.53;;;10.10;99.90;;;;;;10393899;28;20354;-86
2022/11/27 10:26:37;;;;;;;68.30;38.27;;;10.10;99.90;;;;;;10394237;28;20755;-86
2022/11/27 10:31:45;;;;;;;37.23;19.17;;;9.70;99.90;;;;;;10410362;28;20296;-86
2022/11/27 10:36:52;;;;;;;30.47;15.27;;;9.50;99.90;;;;;;10410594;28;20254;-86
2022/11/27 10:42:02;;;;;;;49.47;24.67;;;10.00;99.90;;;;;;10377062;28;20704;-87
2022/11/27 10:47:08;;;;;;;38.80;21.20;;;9.70;99.90;;;;;;10409509;28;20285;-86
2022/11/27 10:52:18;;;;;;;40.80;24.30;;;9.10;99.90;;;;;;10395036;28;20735;-87
2022/11/27 10:57:30;;;;;;;27.57;16.67;;;8.80;99.90;;;;;;10391180;28;20247;-87
2022/11/27 11:02:37;;;;;;;25.10;16.20;;;8.80;99.90;;;;;;10386632;28;20212;-86
2022/11/27 11:07:39;;;;;;;21.90;13.73;;;8.80;99.90;;;;;;10398587;28;20238;-86
2022/11/27 11:12:42;;;;;;;21.77;15.07;;;8.70;99.90;;;;;;10042121;28;10000474;-86
2022/11/27 11:17:45;;;;;;;20.87;12.77;;;8.90;99.90;;;;;;10397628;28;20306;-86
2022/11/27 11:22:48;;;;;;;24.73;13.00;;;9.50;99.90;;;;;;10383268;28;20664;-86
2022/11/27 11:27:51;;;;;;;21.63;13.33;;;9.90;99.90;;;;;;10387284;28;20242;-86
2022/11/27 11:33:02;;;;;;;17.50;10.17;;;9.50;99.90;;;;;;10387856;28;20277;-87
2022/11/27 11:38:15;;;;;;;20.53;12.33;;;9.90;99.90;;;;;;10381468;28;20263;-87
2022/11/27 11:43:27;;;;;;;22.00;13.23;;;9.90;99.90;;;;;;10377487;28;20691;-86
2022/11/27 11:48:29;;;;;;;18.63;11.43;;;9.90;99.90;;;;;;10404805;28;20231;-86
2022/11/27 11:53:44;;;;;;;15.37;10.47;;;10.00;99.90;;;;;;10382414;28;20314;-86
2022/11/27 11:58:52;;;;;;;25.07;13.67;;;10.10;99.90;;;;;;10342720;28;20293;-86
2022/11/27 12:04:12;;;;;;;18.80;12.13;;;9.50;99.90;;;;;;10354235;28;20643;-86
2022/11/27 12:09:41;;;;;;;23.80;13.03;;;9.70;99.90;;;;;;10325513;28;20379;-86
2022/11/27 12:15:01;;;;;;;21.23;12.03;;;9.40;99.90;;;;;;10313105;28;20232;-87
2022/11/27 12:20:32;;;;;;;17.93;10.53;;;9.60;99.90;;;;;;10339344;28;20278;-86
2022/11/27 12:25:56;;;;;;;13.70;8.67;;;9.80;99.90;;;;;;10365593;28;20236;-88
2022/11/27 12:31:02;;;;;;;17.43;9.63;;;9.70;99.90;;;;;;10352223;28;20220;-85
2022/11/27 12:36:47;;;;;;;26.57;13.00;;;10.30;99.90;;;;;;10325662;28;20283;-86
2022/11/27 12:42:27;;;;;;;21.90;11.90;;;10.50;99.90;;;;;;10326802;28;20244;-86
2022/11/27 12:47:41;;;;;;;18.40;10.63;;;9.90;99.90;;;;;;10325484;28;20318;-86
2022/11/27 12:52:53;;;;;;;21.70;12.13;;;9.40;99.90;;;;;;10325419;28;20716;-85
2022/11/27 12:58:04;;;;;;;21.60;12.27;;;9.00;99.90;;;;;;10308801;28;20256;-86
2022/11/27 13:03:29;;;;;;;22.33;12.33;;;8.70;99.90;;;;;;10326666;28;20271;-85
2022/11/27 13:08:49;;;;;;;21.50;12.67;;;8.40;99.90;;;;;;10332029;28;20235;-85
2022/11/27 13:14:08;;;;;;;18.40;10.33;;;8.50;99.90;;;;;;10332423;28;20638;-86
2022/11/27 13:19:31;;;;;;;23.80;13.47;;;8.60;99.90;;;;;;10333032;28;20286;-86
2022/11/27 13:24:35;;;;;;;30.33;16.97;;;9.10;99.90;;;;;;10331755;28;20240;-85
2022/11/27 13:29:52;;;;;;;23.33;13.10;;;9.10;99.90;;;;;;10314656;28;20690;-85
2022/11/27 13:34:58;;;;;;;22.97;13.37;;;9.60;99.90;;;;;;10314546;28;20270;-85
2022/11/27 13:40:16;;;;;;;22.10;11.67;;;9.80;99.90;;;;;;10331977;28;20645;-86
2022/11/27 13:45:32;;;;;;;24.83;14.37;;;9.60;99.90;;;;;;10314223;28;20313;-86
2022/11/27 13:50:43;;;;;;;36.30;22.83;;;9.60;99.90;;;;;;10330539;28;20235;-85
2022/11/27 13:55:55;;;;;;;23.93;13.47;;;9.20;99.90;;;;;;10331675;28;20264;-85
2022/11/27 14:00:58;;;;;;;25.43;14.97;;;9.00;99.90;;;;;;10313707;28;20682;-85
2022/11/27 14:06:01;;;;;;;25.43;14.23;;;9.00;99.90;;;;;;10313557;28;20608;-86
2022/11/27 14:11:07;;;;;;;28.53;16.83;;;8.60;99.90;;;;;;10331124;28;20240;-86
2022/11/27 14:16:25;;;;;;;23.97;12.43;;;8.90;99.90;;;;;;10330804;28;20248;-85
2022/11/27 14:21:42;;;;;;;26.63;14.77;;;8.50;99.90;;;;;;10330983;28;20230;-86
2022/11/27 14:26:45;;;;;;;26.07;15.80;;;8.20;99.90;;;;;;10329116;28;20235;-85
2022/11/27 14:31:58;;;;;;;29.50;16.10;;;8.80;99.90;;;;;;10330506;28;20228;-85
2022/11/27 14:37:01;;;;;;;34.40;20.73;;;8.80;99.90;;;;;;10312999;28;20250;-85
2022/11/27 14:42:06;;;;;;;28.50;17.63;;;7.90;99.90;;;;;;10330252;28;20283;-85
2022/11/27 14:47:21;;;;;;;39.37;22.20;;;7.90;99.90;;;;;;10329508;28;20205;-86
2022/11/27 14:52:24;;;;;;;64.67;33.40;;;7.90;99.90;;;;;;10328758;28;20228;-85
2022/11/27 14:57:29;;;;;;;60.53;30.90;;;7.60;99.90;;;;;;10328416;28;20253;-85
2022/11/27 15:02:31;;;;;;;117.87;50.60;;;7.80;99.90;;;;;;10329188;28;20228;-85
2022/11/27 15:07:36;;;;;;;66.97;37.67;;;8.20;99.90;;;;;;10329202;28;20228;-85
2022/11/27 15:12:49;;;;;;;39.50;22.67;;;7.90;99.90;;;;;;10327962;28;20295;-86
2022/11/27 15:18:04;;;;;;;40.07;22.53;;;7.40;99.90;;;;;;10311084;28;20305;-86
2022/11/27 15:23:24;;;;;;;37.47;22.97;;;7.30;99.90;;;;;;10327798;28;20201;-85
2022/11/27 15:28:36;;;;;;;61.37;30.73;;;7.10;99.90;;;;;;10341903;28;20236;-89
2022/11/27 15:33:38;;;;;;;58.90;33.43;;;7.90;99.90;;;;;;10334285;28;20275;-86
2022/11/27 15:38:42;;;;;;;85.10;48.60;;;8.80;99.90;;;;;;10328647;28;20303;-86
2022/11/27 15:43:44;;;;;;;78.00;43.43;;;7.60;99.90;;;;;;10351566;28;20223;-86
2022/11/27 15:48:47;;;;;;;60.77;35.30;;;7.10;99.90;;;;;;10329732;28;20267;-87
2022/11/27 15:53:49;;;;;;;65.07;34.37;;;7.10;99.90;;;;;;10335951;28;20264;-87
2022/11/27 15:58:52;;;;;;;44.80;27.77;;;6.90;99.90;;;;;;10326729;28;20252;-87
2022/11/27 16:03:54;;;;;;;50.83;28.77;;;6.80;99.90;;;;;;10324638;28;20236;-87
2022/11/27 16:09:00;;;;;;;53.17;31.30;;;7.50;99.90;;;;;;10327803;28;20213;-86
2022/11/27 16:14:03;;;;;;;44.33;21.77;;;6.30;99.90;;;;;;10348804;28;20680;-85
2022/11/27 16:19:05;;;;;;;44.73;22.20;;;6.60;99.90;;;;;;10364088;28;20755;-86
2022/11/27 16:24:11;;;;;;;68.07;37.03;;;8.10;99.90;;;;;;10346844;28;20234;-85
2022/11/27 16:29:14;;;;;;;46.77;27.40;;;8.30;99.90;;;;;;10367112;28;20228;-85
2022/11/27 16:34:16;;;;;;;47.00;26.40;;;7.60;99.90;;;;;;10346033;28;20286;-85
2022/11/27 16:39:19;;;;;;;41.23;21.23;;;7.50;99.90;;;;;;10349071;28;20743;-85
2022/11/27 16:44:21;;;;;;;39.30;22.20;;;8.40;99.90;;;;;;10368088;28;20280;-85
2022/11/27 16:49:24;;;;;;;43.87;22.63;;;9.10;99.90;;;;;;10355205;28;20232;-84
2022/11/27 16:54:27;;;;;;;69.27;34.93;;;9.10;99.90;;;;;;10372489;28;20293;-87
2022/11/27 16:59:30;;;;;;;62.87;32.83;;;8.60;99.90;;;;;;10372801;28;20240;-87
2022/11/27 17:04:32;;;;;;;54.07;29.47;;;7.70;99.90;;;;;;10362240;28;20228;-87
2022/11/27 17:09:36;;;;;;;54.77;29.27;;;6.80;99.90;;;;;;10371472;28;20694;-87
2022/11/27 17:14:38;;;;;;;50.00;28.90;;;6.30;99.90;;;;;;10354786;28;20277;-86
2022/11/27 17:19:42;;;;;;;42.63;25.27;;;6.00;99.90;;;;;;10351134;28;20298;-87
2022/11/27 17:24:44;;;;;;;61.17;32.57;;;6.90;99.90;;;;;;10370215;28;20294;-85
2022/11/27 17:29:50;;;;;;;55.43;27.80;;;7.40;99.90;;;;;;10371403;28;20696;-85
2022/11/27 17:34:52;;;;;;;42.50;23.37;;;8.00;99.90;;;;;;10347347;28;20294;-85
2022/11/27 17:39:55;;;;;;;75.97;34.13;;;7.50;99.90;;;;;;10353943;28;20255;-85
2022/11/27 17:44:58;;;;;;;62.10;31.77;;;8.20;99.90;;;;;;10362315;28;20283;-85
2022/11/27 17:50:00;;;;;;;50.27;29.20;;;8.10;99.90;;;;;;10333540;28;20235;-84
2022/11/27 17:55:03;;;;;;;48.23;28.17;;;7.40;99.90;;;;;;10338134;28;20266;-85
2022/11/27 18:00:07;;;;;;;47.47;28.20;;;6.60;99.90;;;;;;10348644;28;20268;-85
2022/11/27 18:05:15;;;;;;;51.17;30.77;;;6.80;99.90;;;;;;10370134;28;20298;-85
2022/11/27 18:10:18;;;;;;;54.10;31.67;;;6.60;99.90;;;;;;10336400;28;20702;-86
2022/11/27 18:15:20;;;;;;;56.63;33.73;;;6.30;99.90;;;;;;10346788;28;20232;-85
2022/11/27 18:20:23;;;;;;;52.10;31.63;;;6.10;99.90;;;;;;10335538;28;20250;-85
2022/11/27 18:25:25;;;;;;;57.93;34.40;;;5.90;99.90;;;;;;10319765;28;20204;-85
2022/11/27 18:30:28;;;;;;;55.03;31.53;;;6.00;99.90;;;;;;10347928;28;20673;-86
2022/11/27 18:35:31;;;;;;;57.60;34.33;;;6.00;99.90;;;;;;10361266;28;20241;-85
2022/11/27 18:40:38;;;;;;;56.70;34.07;;;5.60;99.90;;;;;;10355556;28;20277;-86
2022/11/27 18:45:41;;;;;;;63.20;35.70;;;5.60;99.90;;;;;;10360786;28;20225;-86
2022/11/27 18:50:44;;;;;;;76.80;44.20;;;6.30;99.90;;;;;;10329843;28;20240;-85
2022/11/27 18:55:47;;;;;;;63.90;38.27;;;6.30;99.90;;;;;;10340003;28;20258;-85
2022/11/27 19:00:56;;;;;;;64.50;36.03;;;6.60;99.90;;;;;;10334034;28;20256;-86
2022/11/27 19:06:00;;;;;;;57.83;35.27;;;7.00;99.90;;;;;;10351043;28;20289;-85
2022/11/27 19:11:06;;;;;;;59.13;34.57;;;7.10;99.90;;;;;;10342927;28;20246;-86
2022/11/27 19:16:17;;;;;;;62.97;35.60;;;6.60;99.90;;;;;;10314986;28;20268;-86
2022/11/27 19:21:22;;;;;;;56.73;31.53;;;6.40;99.90;;;;;;10343686;28;20251;-86
2022/11/27 19:26:33;;;;;;;45.17;24.17;;;6.50;99.90;;;;;;10348649;28;20243;-86
2022/11/27 19:31:38;;;;;;;36.50;21.13;;;6.30;99.90;;;;;;10333728;28;20245;-85
2022/11/27 19:36:41;;;;;;;60.60;33.97;;;7.40;99.90;;;;;;10367826;28;20298;-86
2022/11/27 19:41:44;;;;;;;61.97;34.97;;;7.50;99.90;;;;;;10363238;28;20235;-86
2022/11/27 19:46:48;;;;;;;66.13;42.33;;;7.20;99.90;;;;;;10334472;28;20672;-85
2022/11/27 19:51:51;;;;;;;74.90;35.23;;;6.60;99.90;;;;;;10365205;28;20265;-85
2022/11/27 19:56:54;;;;;;;67.97;35.50;;;6.20;99.90;;;;;;10344743;28;20275;-86
2022/11/27 20:01:57;;;;;;;52.67;26.60;;;5.90;99.90;;;;;;10334691;28;20297;-86
2022/11/27 20:07:03;;;;;;;56.47;29.37;;;7.40;99.90;;;;;;10341620;28;20227;-85
2022/11/27 20:12:06;;;;;;;44.10;26.37;;;8.20;99.90;;;;;;10320086;28;20258;-86
2022/11/27 20:17:08;;;;;;;55.47;33.43;;;8.00;99.90;;;;;;10332131;28;20310;-86
2022/11/27 20:22:12;;;;;;;57.07;31.80;;;7.00;99.90;;;;;;10355163;28;20236;-85
2022/11/27 20:27:14;;;;;;;55.57;31.60;;;6.20;99.90;;;;;;10343907;28;20270;-86
2022/11/27 20:32:17;;;;;;;66.87;37.33;;;7.10;99.90;;;;;;10336464;28;20208;-86
2022/11/27 20:37:19;;;;;;;65.37;35.03;;;6.40;99.90;;;;;;10343280;28;20232;-86
2022/11/27 20:42:23;;;;;;;40.47;21.90;;;6.50;99.90;;;;;;10339820;28;20204;-88
2022/11/27 20:47:27;;;;;;;55.47;33.33;;;6.70;99.90;;;;;;10342383;28;20234;-86
2022/11/27 20:52:29;;;;;;;64.67;34.20;;;6.90;99.90;;;;;;10341979;28;20215;-86
2022/11/27 20:57:33;;;;;;;52.47;29.47;;;6.00;99.90;;;;;;10363566;28;20216;-86
2022/11/27 21:02:40;;;;;;;60.60;35.00;;;5.70;99.90;;;;;;10347383;28;20246;-86
2022/11/27 21:07:42;;;;;;;49.63;27.87;;;5.70;99.90;;;;;;10342589;28;20516;-86
2022/11/27 21:12:45;;;;;;;55.40;30.93;;;5.50;99.90;;;;;;10355749;28;20242;-87
2022/11/27 21:17:48;;;;;;;60.30;33.97;;;5.70;99.90;;;;;;10339687;28;20224;-88
2022/11/27 21:22:52;;;;;;;55.40;31.60;;;5.80;99.90;;;;;;10382175;28;20255;-87
2022/11/27 21:27:56;;;;;;;48.40;28.37;;;6.30;99.90;;;;;;10365802;28;20211;-88
2022/11/27 21:32:59;;;;;;;54.97;33.40;;;6.00;99.90;;;;;;10381079;28;20239;-88
2022/11/27 21:38:02;;;;;;;30.60;19.23;;;5.70;99.90;;;;;;10350910;28;20223;-87
2022/11/27 21:43:05;;;;;;;53.20;29.70;;;6.50;99.90;;;;;;10347527;28;20259;-87
2022/11/27 21:48:07;;;;;;;47.80;27.87;;;6.10;99.90;;;;;;10336666;28;20201;-88
2022/11/27 21:53:15;;;;;;;51.53;30.37;;;5.10;99.90;;;;;;10371572;28;20232;-88
2022/11/27 21:58:18;;;;;;;59.67;32.83;;;5.10;99.90;;;;;;10361267;28;20278;-88
2022/11/27 22:03:20;;;;;;;33.87;19.63;;;5.30;99.90;;;;;;10378660;28;20277;-87
2022/11/27 22:08:22;;;;;;;31.20;19.93;;;6.40;99.90;;;;;;10361261;28;20200;-87
2022/11/27 22:13:27;;;;;;;52.33;30.67;;;6.70;99.90;;;;;;10378329;28;20208;-87
2022/11/27 22:18:30;;;;;;;54.47;32.70;;;6.30;99.90;;;;;;10376100;28;20231;-86
2022/11/27 22:23:33;;;;;;;46.00;28.07;;;5.70;99.90;;;;;;10376278;28;20209;-87
2022/11/27 22:28:35;;;;;;;59.33;34.40;;;5.90;99.90;;;;;;10376005;28;20254;-88
2022/11/27 22:33:40;;;;;;;50.80;29.57;;;5.20;99.90;;;;;;10358245;28;20212;-87
2022/11/27 22:38:44;;;;;;;47.93;27.50;;;5.50;99.90;;;;;;10357879;28;20265;-87
2022/11/27 22:43:47;;;;;;;46.43;26.80;;;6.50;99.90;;;;;;10373802;28;20262;-88
2022/11/27 22:48:55;;;;;;;54.50;28.40;;;6.90;99.90;;;;;;10357919;28;20204;-88
2022/11/27 22:53:57;;;;;;;49.43;25.07;;;6.50;99.90;;;;;;10375543;28;20228;-87
2022/11/27 22:59:02;;;;;;;49.50;28.43;;;7.00;99.90;;;;;;10357740;28;20230;-88
2022/11/27 23:04:25;;;;;;;50.10;27.53;;;7.10;99.90;;;;;;10357235;28;20196;-87
2022/11/27 23:09:28;;;;;;;36.53;20.77;;;7.50;99.90;;;;;;10356683;28;20205;-87
2022/11/27 23:14:30;;;;;;;41.97;23.90;;;7.50;99.90;;;;;;10357209;28;20199;-88
2022/11/27 23:19:33;;;;;;;44.77;26.13;;;7.70;99.90;;;;;;10373938;28;20224;-87
2022/11/27 23:24:35;;;;;;;56.37;30.73;;;7.00;99.90;;;;;;10374130;28;20570;-88
2022/11/27 23:29:38;;;;;;;54.23;32.03;;;6.00;99.90;;;;;;10374026;28;20196;-87
2022/11/27 23:34:40;;;;;;;33.23;20.60;;;4.50;99.90;;;;;;10355302;28;20263;-87
2022/11/27 23:39:43;;;;;;;30.87;19.37;;;5.00;99.90;;;;;;10355314;28;20220;-87
2022/11/27 23:44:46;;;;;;;42.87;25.80;;;6.30;99.90;;;;;;10356251;28;20192;-87
2022/11/27 23:49:48;;;;;;;46.93;29.27;;;6.00;99.90;;;;;;10332718;28;20216;-88
2022/11/27 23:54:51;;;;;;;33.53;21.37;;;5.90;99.90;;;;;;10349376;28;20290;-88
2022/11/27 23:59:53;;;;;;;49.47;30.60;;;6.50;99.90;;;;;;10355989;28;20215;-87
